createdAt,value
2017-09-14T00:00:56.576Z,0
2017-09-14T00:02:05.412Z,0
2017-09-14T00:03:14.242Z,0
2017-09-14T00:04:23.077Z,0
2017-09-14T00:05:31.920Z,0
2017-09-14T00:06:40.752Z,0
2017-09-14T00:07:49.584Z,0
2017-09-14T00:08:58.421Z,0
2017-09-14T00:10:07.256Z,0
2017-09-14T00:11:16.094Z,0
2017-09-14T00:12:24.928Z,0
2017-09-14T00:13:33.767Z,0
2017-09-14T00:14:42.602Z,0
2017-09-14T00:15:51.436Z,0
2017-09-14T00:17:00.277Z,0
2017-09-14T00:18:09.438Z,0
2017-09-14T00:19:18.273Z,0
2017-09-14T00:20:27.109Z,0
2017-09-14T00:21:35.944Z,0
2017-09-14T00:22:44.776Z,0
2017-09-14T00:23:53.615Z,0
2017-09-14T00:25:02.448Z,0
2017-09-14T00:26:11.286Z,0
2017-09-14T00:27:20.115Z,0
2017-09-14T00:28:28.959Z,0
2017-09-14T00:29:37.792Z,0
2017-09-14T00:30:46.630Z,0
2017-09-14T00:31:55.459Z,0
2017-09-14T00:33:04.292Z,0
2017-09-14T00:34:13.130Z,0
2017-09-14T00:35:21.970Z,0
2017-09-14T00:36:30.806Z,0
2017-09-14T00:37:39.641Z,0
2017-09-14T00:38:48.804Z,0
2017-09-14T00:39:57.638Z,0
2017-09-14T00:41:06.479Z,0
2017-09-14T00:42:15.317Z,0
2017-09-14T00:43:24.146Z,0
2017-09-14T00:44:32.982Z,0
2017-09-14T00:45:41.818Z,0
2017-09-14T00:46:50.652Z,0
2017-09-14T00:47:59.493Z,0
2017-09-14T00:49:08.328Z,0
2017-09-14T00:50:17.162Z,0
2017-09-14T00:51:25.992Z,0
2017-09-14T00:52:34.831Z,0
2017-09-14T00:53:43.665Z,0
2017-09-14T00:54:52.499Z,0
2017-09-14T00:56:01.333Z,0
2017-09-14T00:57:10.165Z,0
2017-09-14T00:58:18.999Z,0
2017-09-14T00:59:28.168Z,0
2017-09-14T01:00:37.002Z,0
2017-09-14T01:01:45.837Z,0
2017-09-14T01:02:54.672Z,0
2017-09-14T01:04:03.505Z,0
2017-09-14T01:05:12.341Z,0
2017-09-14T01:06:21.182Z,0
2017-09-14T01:07:30.015Z,0
2017-09-14T01:08:38.855Z,0
2017-09-14T01:09:47.692Z,0
2017-09-14T01:10:56.847Z,0
2017-09-14T01:12:05.681Z,0
2017-09-14T01:13:14.524Z,0
2017-09-14T01:14:23.679Z,0
2017-09-14T01:15:32.517Z,0
2017-09-14T01:16:41.350Z,0
2017-09-14T01:17:50.187Z,0
2017-09-14T01:18:59.022Z,0
2017-09-14T01:20:07.858Z,0
2017-09-14T01:21:16.697Z,0
2017-09-14T01:22:25.532Z,0
2017-09-14T01:23:34.365Z,0
2017-09-14T01:24:43.203Z,0
2017-09-14T01:25:52.041Z,0
2017-09-14T01:27:00.875Z,0
2017-09-14T01:28:09.708Z,0
2017-09-14T01:29:18.540Z,0
2017-09-14T01:30:27.379Z,0
2017-09-14T01:31:36.213Z,0
2017-09-14T01:32:45.042Z,0
2017-09-14T01:33:53.879Z,0
2017-09-14T01:35:02.713Z,0
2017-09-14T01:36:11.548Z,0
2017-09-14T01:37:20.381Z,0
2017-09-14T01:38:29.215Z,0
2017-09-14T01:39:38.046Z,0
2017-09-14T01:40:46.879Z,0
2017-09-14T01:41:55.717Z,0
2017-09-14T01:43:04.560Z,0
2017-09-14T01:44:13.392Z,0
2017-09-14T01:45:22.551Z,0
2017-09-14T01:46:31.379Z,0
2017-09-14T01:47:40.219Z,0
2017-09-14T01:48:49.057Z,0
2017-09-14T01:49:57.893Z,0
2017-09-14T01:51:06.729Z,0
2017-09-14T01:52:15.566Z,0
2017-09-14T01:53:24.396Z,0
2017-09-14T01:54:33.234Z,0
2017-09-14T01:55:42.073Z,0
2017-09-14T01:56:50.903Z,0
2017-09-14T01:57:59.736Z,0
2017-09-14T01:59:08.572Z,0
2017-09-14T02:00:17.407Z,0
2017-09-14T02:01:26.247Z,0
2017-09-14T02:02:35.081Z,0
2017-09-14T02:03:43.915Z,0
2017-09-14T02:04:52.749Z,0
2017-09-14T02:06:01.585Z,0
2017-09-14T02:07:10.417Z,0
2017-09-14T02:08:19.254Z,0
2017-09-14T02:09:28.089Z,0
2017-09-14T02:10:36.925Z,0
2017-09-14T02:11:45.755Z,0
2017-09-14T02:12:54.919Z,0
2017-09-14T02:14:03.754Z,0
2017-09-14T02:15:12.596Z,0
2017-09-14T02:16:21.433Z,0
2017-09-14T02:17:30.265Z,0
2017-09-14T02:18:39.095Z,0
2017-09-14T02:19:47.935Z,0
2017-09-14T02:20:57.093Z,0
2017-09-14T02:22:05.927Z,0
2017-09-14T02:23:15.097Z,0
2017-09-14T02:24:23.931Z,0
2017-09-14T02:25:32.759Z,0
2017-09-14T02:26:41.599Z,0
2017-09-14T02:27:50.430Z,0
2017-09-14T02:28:59.271Z,0
2017-09-14T02:30:08.108Z,0
2017-09-14T02:31:16.941Z,0
2017-09-14T02:32:25.769Z,0
2017-09-14T02:33:34.608Z,0
2017-09-14T02:34:43.444Z,0
2017-09-14T02:35:52.277Z,0
2017-09-14T02:37:01.115Z,0
2017-09-14T02:38:09.949Z,0
2017-09-14T02:39:18.786Z,0
2017-09-14T02:40:27.616Z,0
2017-09-14T02:41:36.452Z,0
2017-09-14T02:42:45.285Z,0
2017-09-14T02:43:54.124Z,0
2017-09-14T02:45:02.974Z,0
2017-09-14T02:46:11.803Z,0
2017-09-14T02:47:20.639Z,0
2017-09-14T02:48:29.475Z,0
2017-09-14T02:49:38.311Z,0
2017-09-14T02:50:47.149Z,0
2017-09-14T02:51:55.982Z,0
2017-09-14T02:53:04.819Z,0
2017-09-14T02:54:13.657Z,0
2017-09-14T02:55:22.497Z,0
2017-09-14T02:56:31.329Z,0
2017-09-14T02:57:40.167Z,0
2017-09-14T02:58:48.998Z,0
2017-09-14T02:59:57.828Z,0
2017-09-14T03:01:06.665Z,0
2017-09-14T03:02:15.502Z,0
2017-09-14T03:03:24.334Z,0
2017-09-14T03:04:33.168Z,0
2017-09-14T03:05:41.999Z,0
2017-09-14T03:06:50.834Z,0
2017-09-14T03:07:59.669Z,0
2017-09-14T03:09:08.502Z,0
2017-09-14T03:10:17.340Z,0
2017-09-14T03:11:26.174Z,0
2017-09-14T03:12:35.011Z,0
2017-09-14T03:13:43.840Z,0
2017-09-14T03:14:52.675Z,0
2017-09-14T03:16:01.515Z,0
2017-09-14T03:17:10.349Z,0
2017-09-14T03:18:19.182Z,0
2017-09-14T03:19:28.064Z,0
2017-09-14T03:20:36.902Z,0
2017-09-14T03:21:45.734Z,0
2017-09-14T03:22:54.567Z,0
2017-09-14T03:24:03.402Z,0
2017-09-14T03:25:12.235Z,0
2017-09-14T03:26:21.072Z,0
2017-09-14T03:27:29.911Z,0
2017-09-14T03:28:38.748Z,0
2017-09-14T03:29:47.581Z,0
2017-09-14T03:30:56.420Z,0
2017-09-14T03:32:05.255Z,0
2017-09-14T03:33:14.091Z,0
2017-09-14T03:34:23.281Z,0
2017-09-14T03:35:32.116Z,0
2017-09-14T03:36:40.948Z,0
2017-09-14T03:37:49.784Z,0
2017-09-14T03:38:58.622Z,0
2017-09-14T03:40:07.462Z,0
2017-09-14T03:41:16.299Z,0
2017-09-14T03:42:25.134Z,0
2017-09-14T03:43:34.290Z,0
2017-09-14T03:44:43.125Z,0
2017-09-14T03:45:51.966Z,0
2017-09-14T03:47:00.804Z,0
2017-09-14T03:48:09.643Z,0
2017-09-14T03:49:18.479Z,0
2017-09-14T03:50:27.312Z,0
2017-09-14T03:51:36.149Z,0
2017-09-14T03:52:44.985Z,0
2017-09-14T03:53:53.818Z,0
2017-09-14T03:55:02.648Z,0
2017-09-14T03:56:11.486Z,0
2017-09-14T03:57:20.317Z,0
2017-09-14T03:58:29.160Z,0
2017-09-14T03:59:37.997Z,0
2017-09-14T04:00:46.831Z,0
2017-09-14T04:01:55.695Z,0
2017-09-14T04:03:04.493Z,0
2017-09-14T04:04:13.326Z,0
2017-09-14T04:05:22.165Z,0
2017-09-14T04:06:31.002Z,0
2017-09-14T04:07:39.837Z,0
2017-09-14T04:08:48.675Z,0
2017-09-14T04:09:57.507Z,0
2017-09-14T04:11:06.341Z,0
2017-09-14T04:12:15.176Z,0
2017-09-14T04:13:24.010Z,0
2017-09-14T04:14:32.843Z,0
2017-09-14T04:15:41.676Z,0
2017-09-14T04:16:50.508Z,0
2017-09-14T04:17:59.349Z,0
2017-09-14T04:19:08.206Z,0
2017-09-14T04:20:17.018Z,0
2017-09-14T04:21:25.854Z,0
2017-09-14T04:22:34.692Z,0
2017-09-14T04:23:43.526Z,0
2017-09-14T04:24:52.359Z,0
2017-09-14T04:26:01.196Z,0
2017-09-14T04:27:10.031Z,0
2017-09-14T04:28:18.867Z,0
2017-09-14T04:29:27.704Z,0
2017-09-14T04:30:36.538Z,0
2017-09-14T04:31:45.374Z,0
2017-09-14T04:32:54.210Z,0
2017-09-14T04:34:03.041Z,0
2017-09-14T04:35:11.876Z,0
2017-09-14T04:36:20.716Z,0
2017-09-14T04:37:29.550Z,0
2017-09-14T04:38:38.385Z,0
2017-09-14T04:39:47.221Z,0
2017-09-14T04:40:56.057Z,0
2017-09-14T04:42:04.890Z,0
2017-09-14T04:43:13.727Z,0
2017-09-14T04:44:22.561Z,0
2017-09-14T04:45:31.394Z,0
2017-09-14T04:46:40.228Z,0
2017-09-14T04:47:49.065Z,0
2017-09-14T04:48:57.901Z,0
2017-09-14T04:50:06.740Z,0
2017-09-14T04:51:15.593Z,0
2017-09-14T04:52:24.402Z,0
2017-09-14T04:53:33.242Z,0
2017-09-14T04:54:42.073Z,0
2017-09-14T04:55:50.912Z,0
2017-09-14T04:56:59.748Z,0
2017-09-14T04:58:08.584Z,0
2017-09-14T04:59:17.740Z,0
2017-09-14T05:00:26.579Z,0
2017-09-14T05:01:35.416Z,0
2017-09-14T05:02:44.247Z,0
2017-09-14T05:03:53.084Z,0
2017-09-14T05:05:01.914Z,0
2017-09-14T05:06:10.749Z,0
2017-09-14T05:07:19.590Z,0
2017-09-14T05:08:28.426Z,0
2017-09-14T05:09:37.254Z,0
2017-09-14T05:10:46.092Z,0
2017-09-14T05:11:54.926Z,0
2017-09-14T05:13:03.758Z,0
2017-09-14T05:14:12.594Z,0
2017-09-14T05:15:21.435Z,0
2017-09-14T05:16:30.266Z,0
2017-09-14T05:17:39.107Z,0
2017-09-14T05:18:47.934Z,0
2017-09-14T05:19:56.771Z,0
2017-09-14T05:21:05.605Z,0
2017-09-14T05:22:14.441Z,0
2017-09-14T05:23:23.277Z,0
2017-09-14T05:24:32.114Z,0
2017-09-14T05:25:40.945Z,0
2017-09-14T05:26:49.778Z,0
2017-09-14T05:27:58.619Z,5
2017-09-14T05:29:07.453Z,5
2017-09-14T05:30:16.287Z,5
2017-09-14T05:31:25.126Z,5
2017-09-14T05:32:33.961Z,5
2017-09-14T05:33:42.799Z,5
2017-09-14T05:34:51.632Z,5
2017-09-14T05:36:00.469Z,5
2017-09-14T05:37:09.307Z,5
2017-09-14T05:38:18.143Z,5
2017-09-14T05:39:26.978Z,5
2017-09-14T05:40:35.810Z,5
2017-09-14T05:41:45.553Z,5
2017-09-14T05:42:55.471Z,5
2017-09-14T05:44:04.785Z,5
2017-09-14T05:45:13.745Z,5
2017-09-14T05:46:22.584Z,5
2017-09-14T05:47:31.576Z,5
2017-09-14T05:48:40.631Z,5
2017-09-14T05:49:49.550Z,5
2017-09-14T05:50:58.487Z,5
2017-09-14T05:52:07.669Z,5
2017-09-14T05:53:16.507Z,10
2017-09-14T05:54:25.341Z,10
2017-09-14T05:55:34.281Z,10
2017-09-14T05:56:43.119Z,10
2017-09-14T05:57:52.203Z,10
2017-09-14T05:59:01.356Z,15
2017-09-14T06:00:10.192Z,15
2017-09-14T06:01:19.070Z,15
2017-09-14T06:02:28.436Z,10
2017-09-14T06:03:37.276Z,10
2017-09-14T06:04:46.460Z,10
2017-09-14T06:05:55.300Z,10
2017-09-14T06:07:04.137Z,10
2017-09-14T06:08:13.088Z,10
2017-09-14T06:09:21.980Z,10
2017-09-14T06:10:31.101Z,5
2017-09-14T06:11:40.161Z,10
2017-09-14T06:12:49.098Z,10
2017-09-14T06:13:58.370Z,10
2017-09-14T06:15:07.247Z,10
2017-09-14T06:16:16.100Z,10
2017-09-14T06:17:24.961Z,10
2017-09-14T06:18:34.124Z,10
2017-09-14T06:19:42.962Z,10
2017-09-14T06:20:51.792Z,10
2017-09-14T06:22:00.623Z,10
2017-09-14T06:23:10.105Z,10
2017-09-14T06:24:19.971Z,10
2017-09-14T06:25:29.256Z,10
2017-09-14T06:26:38.316Z,10
2017-09-14T06:27:47.503Z,10
2017-09-14T06:28:56.859Z,15
2017-09-14T06:30:06.299Z,15
2017-09-14T06:31:15.262Z,15
2017-09-14T06:32:24.099Z,10
2017-09-14T06:33:32.936Z,10
2017-09-14T06:34:41.769Z,5
2017-09-14T06:35:50.606Z,5
2017-09-14T06:36:59.448Z,5
2017-09-14T06:38:08.605Z,5
2017-09-14T06:39:17.442Z,10
2017-09-14T06:40:26.276Z,10
2017-09-14T06:41:35.115Z,10
2017-09-14T06:42:43.949Z,10
2017-09-14T06:43:52.790Z,15
2017-09-14T06:45:01.621Z,20
2017-09-14T06:46:10.462Z,20
2017-09-14T06:47:19.302Z,20
2017-09-14T06:48:28.139Z,20
2017-09-14T06:49:37.142Z,20
2017-09-14T06:50:46.015Z,20
2017-09-14T06:51:54.854Z,20
2017-09-14T06:53:03.761Z,25
2017-09-14T06:54:12.629Z,30
2017-09-14T06:55:21.502Z,35
2017-09-14T06:56:30.715Z,35
2017-09-14T06:57:39.707Z,40
2017-09-14T06:58:48.543Z,40
2017-09-14T06:59:57.453Z,35
2017-09-14T07:01:06.290Z,35
2017-09-14T07:02:15.463Z,35
2017-09-14T07:03:24.301Z,40
2017-09-14T07:04:33.493Z,40
2017-09-14T07:05:42.328Z,40
2017-09-14T07:06:51.277Z,35
2017-09-14T07:08:00.458Z,30
2017-09-14T07:09:09.655Z,35
2017-09-14T07:10:18.546Z,35
2017-09-14T07:11:27.473Z,35
2017-09-14T07:12:36.308Z,30
2017-09-14T07:13:45.232Z,30
2017-09-14T07:14:54.128Z,25
2017-09-14T07:16:03.127Z,20
2017-09-14T07:17:11.999Z,20
2017-09-14T07:18:20.870Z,20
2017-09-14T07:19:30.093Z,20
2017-09-14T07:20:38.930Z,20
2017-09-14T07:21:48.113Z,15
2017-09-14T07:22:56.947Z,15
2017-09-14T07:24:05.853Z,15
2017-09-14T07:25:14.784Z,15
2017-09-14T07:26:23.710Z,20
2017-09-14T07:27:32.630Z,20
2017-09-14T07:28:41.833Z,25
2017-09-14T07:29:50.761Z,30
2017-09-14T07:30:59.639Z,30
2017-09-14T07:32:08.698Z,35
2017-09-14T07:33:17.862Z,50
2017-09-14T07:34:26.775Z,50
2017-09-14T07:35:35.661Z,50
2017-09-14T07:36:44.579Z,50
2017-09-14T07:37:53.490Z,50
2017-09-14T07:39:02.658Z,50
2017-09-14T07:40:11.577Z,40
2017-09-14T07:41:20.490Z,45
2017-09-14T07:42:29.327Z,50
2017-09-14T07:43:38.166Z,45
2017-09-14T07:44:46.996Z,40
2017-09-14T07:45:55.975Z,40
2017-09-14T07:47:04.912Z,35
2017-09-14T07:48:13.880Z,40
2017-09-14T07:49:22.978Z,40
2017-09-14T07:50:31.818Z,45
2017-09-14T07:51:40.654Z,45
2017-09-14T07:52:49.569Z,50
2017-09-14T07:53:58.405Z,50
2017-09-14T07:55:07.364Z,45
2017-09-14T07:56:16.202Z,40
2017-09-14T07:57:25.038Z,35
2017-09-14T07:58:33.876Z,35
2017-09-14T07:59:42.715Z,35
2017-09-14T08:00:51.553Z,40
2017-09-14T08:02:00.388Z,45
2017-09-14T08:03:09.586Z,50
2017-09-14T08:04:18.503Z,50
2017-09-14T08:05:27.340Z,50
2017-09-14T08:06:36.174Z,50
2017-09-14T08:07:45.011Z,55
2017-09-14T08:08:53.852Z,50
2017-09-14T08:10:03.012Z,45
2017-09-14T08:11:11.847Z,35
2017-09-14T08:12:20.685Z,35
2017-09-14T08:13:29.851Z,35
2017-09-14T08:14:39.014Z,35
2017-09-14T08:15:47.849Z,35
2017-09-14T08:16:56.688Z,35
2017-09-14T08:18:05.521Z,40
2017-09-14T08:19:14.357Z,40
2017-09-14T08:20:23.195Z,40
2017-09-14T08:21:32.038Z,45
2017-09-14T08:22:40.874Z,50
2017-09-14T08:23:49.712Z,50
2017-09-14T08:24:58.553Z,50
2017-09-14T08:26:07.386Z,50
2017-09-14T08:27:16.224Z,50
2017-09-14T08:28:25.055Z,50
2017-09-14T08:29:33.900Z,55
2017-09-14T08:30:42.739Z,50
2017-09-14T08:31:51.576Z,50
2017-09-14T08:33:00.728Z,50
2017-09-14T08:34:09.571Z,50
2017-09-14T08:35:18.407Z,45
2017-09-14T08:36:27.249Z,50
2017-09-14T08:37:36.085Z,45
2017-09-14T08:38:44.923Z,45
2017-09-14T08:39:53.753Z,45
2017-09-14T08:41:02.593Z,50
2017-09-14T08:42:11.433Z,50
2017-09-14T08:43:20.267Z,50
2017-09-14T08:44:29.430Z,50
2017-09-14T08:45:38.260Z,50
2017-09-14T08:46:47.100Z,45
2017-09-14T08:47:55.936Z,55
2017-09-14T08:49:04.769Z,55
2017-09-14T08:50:13.604Z,65
2017-09-14T08:51:22.441Z,65
2017-09-14T08:52:31.278Z,60
2017-09-14T08:53:40.116Z,55
2017-09-14T08:54:48.956Z,60
2017-09-14T08:55:57.789Z,50
2017-09-14T08:57:06.626Z,50
2017-09-14T08:58:15.461Z,40
2017-09-14T08:59:24.298Z,45
2017-09-14T09:00:33.136Z,40
2017-09-14T09:01:41.970Z,40
2017-09-14T09:02:50.806Z,45
2017-09-14T09:03:59.641Z,50
2017-09-14T09:05:08.806Z,55
2017-09-14T09:06:17.643Z,50
2017-09-14T09:07:26.477Z,50
2017-09-14T09:08:35.315Z,50
2017-09-14T09:09:44.151Z,50
2017-09-14T09:10:52.987Z,50
2017-09-14T09:12:01.827Z,50
2017-09-14T09:13:10.985Z,50
2017-09-14T09:14:19.825Z,60
2017-09-14T09:15:28.661Z,50
2017-09-14T09:16:37.496Z,40
2017-09-14T09:17:46.372Z,40
2017-09-14T09:18:55.400Z,40
2017-09-14T09:20:04.318Z,40
2017-09-14T09:21:13.150Z,45
2017-09-14T09:22:22.349Z,45
2017-09-14T09:23:31.585Z,50
2017-09-14T09:24:40.443Z,40
2017-09-14T09:25:49.322Z,40
2017-09-14T09:26:58.293Z,35
2017-09-14T09:28:07.128Z,40
2017-09-14T09:29:16.041Z,35
2017-09-14T09:30:24.918Z,35
2017-09-14T09:31:34.097Z,35
2017-09-14T09:32:42.930Z,40
2017-09-14T09:33:51.847Z,50
2017-09-14T09:35:00.683Z,50
2017-09-14T09:36:09.563Z,50
2017-09-14T09:37:18.785Z,50
2017-09-14T09:38:27.690Z,55
2017-09-14T09:39:36.596Z,55
2017-09-14T09:40:45.496Z,50
2017-09-14T09:41:54.681Z,55
2017-09-14T09:43:03.522Z,50
2017-09-14T09:44:12.367Z,45
2017-09-14T09:45:21.197Z,45
2017-09-14T09:46:30.109Z,40
2017-09-14T09:47:39.187Z,45
2017-09-14T09:48:48.323Z,30
2017-09-14T09:49:57.161Z,35
2017-09-14T09:51:06.706Z,40
2017-09-14T09:52:15.554Z,35
2017-09-14T09:53:24.387Z,35
2017-09-14T09:54:33.229Z,40
2017-09-14T09:55:42.454Z,40
2017-09-14T09:56:51.291Z,35
2017-09-14T09:58:00.496Z,30
2017-09-14T09:59:09.330Z,35
2017-09-14T10:00:18.332Z,35
2017-09-14T10:01:27.184Z,30
2017-09-14T10:02:36.084Z,35
2017-09-14T10:03:45.004Z,30
2017-09-14T10:04:53.842Z,35
2017-09-14T10:06:02.706Z,35
2017-09-14T10:07:11.570Z,30
2017-09-14T10:08:20.773Z,40
2017-09-14T10:09:29.618Z,50
2017-09-14T10:10:38.507Z,45
2017-09-14T10:11:47.347Z,35
2017-09-14T10:12:56.248Z,30
2017-09-14T10:14:05.178Z,35
2017-09-14T10:15:14.016Z,35
2017-09-14T10:16:22.903Z,40
2017-09-14T10:17:31.774Z,45
2017-09-14T10:18:40.662Z,50
2017-09-14T10:19:49.732Z,45
2017-09-14T10:20:59.327Z,45
2017-09-14T10:22:08.189Z,35
2017-09-14T10:23:17.097Z,35
2017-09-14T10:24:26.008Z,35
2017-09-14T10:25:34.944Z,30
2017-09-14T10:26:43.890Z,35
2017-09-14T10:27:52.858Z,25
2017-09-14T10:29:01.918Z,35
2017-09-14T10:30:10.920Z,45
2017-09-14T10:31:19.820Z,50
2017-09-14T10:32:29.007Z,55
2017-09-14T10:33:37.849Z,60
2017-09-14T10:34:46.750Z,45
2017-09-14T10:35:55.625Z,50
2017-09-14T10:37:04.557Z,50
2017-09-14T10:38:13.495Z,50
2017-09-14T10:39:23.089Z,40
2017-09-14T10:40:32.261Z,45
2017-09-14T10:41:41.093Z,50
2017-09-14T10:42:50.281Z,50
2017-09-14T10:43:59.192Z,65
2017-09-14T10:45:08.032Z,70
2017-09-14T10:46:16.938Z,70
2017-09-14T10:47:25.784Z,60
2017-09-14T10:48:34.879Z,55
2017-09-14T10:49:44.116Z,50
2017-09-14T10:50:53.060Z,50
2017-09-14T10:52:01.896Z,55
2017-09-14T10:53:10.771Z,50
2017-09-14T10:54:20.050Z,50
2017-09-14T10:55:28.888Z,45
2017-09-14T10:56:37.841Z,45
2017-09-14T10:57:46.849Z,45
2017-09-14T10:58:56.112Z,45
2017-09-14T11:00:04.949Z,60
2017-09-14T11:01:13.835Z,55
2017-09-14T11:02:22.673Z,65
2017-09-14T11:03:31.850Z,75
2017-09-14T11:04:40.698Z,75
2017-09-14T11:05:49.926Z,85
2017-09-14T11:06:58.803Z,85
2017-09-14T11:08:07.682Z,50
2017-09-14T11:09:16.557Z,50
2017-09-14T11:10:25.517Z,60
2017-09-14T11:11:34.404Z,55
2017-09-14T11:12:43.337Z,45
2017-09-14T11:13:52.201Z,65
2017-09-14T11:15:01.148Z,60
2017-09-14T11:16:09.998Z,55
2017-09-14T11:17:18.917Z,35
2017-09-14T11:18:27.811Z,35
2017-09-14T11:19:36.726Z,35
2017-09-14T11:20:45.888Z,55
2017-09-14T11:21:54.743Z,45
2017-09-14T11:23:03.878Z,50
2017-09-14T11:24:12.716Z,45
2017-09-14T11:25:21.554Z,35
2017-09-14T11:26:30.387Z,45
2017-09-14T11:27:39.227Z,45
2017-09-14T11:28:48.388Z,40
2017-09-14T11:29:57.266Z,50
2017-09-14T11:31:06.100Z,25
2017-09-14T11:32:14.944Z,20
2017-09-14T11:33:23.777Z,15
2017-09-14T11:34:32.618Z,15
2017-09-14T11:35:41.489Z,15
2017-09-14T11:36:50.329Z,5
2017-09-14T11:37:59.164Z,5
2017-09-14T11:39:08.001Z,5
2017-09-14T11:40:16.970Z,5
2017-09-14T11:41:25.816Z,10
2017-09-14T11:42:34.657Z,10
2017-09-14T11:43:43.529Z,10
2017-09-14T11:44:52.367Z,10
2017-09-14T11:46:01.206Z,10
2017-09-14T11:47:10.046Z,10
2017-09-14T11:48:18.879Z,10
2017-09-14T11:49:27.744Z,10
2017-09-14T11:50:36.590Z,10
2017-09-14T11:51:45.420Z,10
2017-09-14T11:52:54.256Z,10
2017-09-14T11:54:03.093Z,10
2017-09-14T11:55:11.927Z,15
2017-09-14T11:56:20.761Z,30
2017-09-14T11:57:29.600Z,45
2017-09-14T11:58:38.437Z,60
2017-09-14T11:59:47.276Z,75
2017-09-14T12:00:56.105Z,50
2017-09-14T12:02:04.944Z,50
2017-09-14T12:03:13.801Z,45
2017-09-14T12:04:22.800Z,45
2017-09-14T12:05:31.636Z,50
2017-09-14T12:06:40.478Z,65
2017-09-14T12:07:49.313Z,70
2017-09-14T12:08:58.155Z,80
2017-09-14T12:10:06.985Z,75
2017-09-14T12:11:15.821Z,60
2017-09-14T12:12:24.665Z,55
2017-09-14T12:13:33.502Z,60
2017-09-14T12:14:42.336Z,45
2017-09-14T12:15:51.174Z,50
2017-09-14T12:17:00.012Z,50
2017-09-14T12:18:08.847Z,55
2017-09-14T12:19:17.686Z,55
2017-09-14T12:20:26.524Z,50
2017-09-14T12:21:35.357Z,55
2017-09-14T12:22:44.188Z,60
2017-09-14T12:23:53.020Z,70
2017-09-14T12:25:01.856Z,70
2017-09-14T12:26:10.695Z,70
2017-09-14T12:27:19.530Z,60
2017-09-14T12:28:28.366Z,60
2017-09-14T12:29:37.203Z,45
2017-09-14T12:30:46.036Z,45
2017-09-14T12:31:55.020Z,30
2017-09-14T12:33:03.858Z,25
2017-09-14T12:34:12.705Z,35
2017-09-14T12:35:21.539Z,40
2017-09-14T12:36:30.378Z,35
2017-09-14T12:37:39.216Z,30
2017-09-14T12:38:48.051Z,25
2017-09-14T12:39:56.885Z,20
2017-09-14T12:41:05.721Z,20
2017-09-14T12:42:14.559Z,15
2017-09-14T12:43:23.393Z,15
2017-09-14T12:44:32.229Z,15
2017-09-14T12:45:41.066Z,20
2017-09-14T12:46:49.906Z,20
2017-09-14T12:47:58.743Z,25
2017-09-14T12:49:07.576Z,20
2017-09-14T12:50:16.416Z,20
2017-09-14T12:51:25.250Z,20
2017-09-14T12:52:34.414Z,15
2017-09-14T12:53:43.249Z,25
2017-09-14T12:54:52.090Z,75
2017-09-14T12:56:00.921Z,90
2017-09-14T12:57:09.754Z,60
2017-09-14T12:58:18.589Z,45
2017-09-14T12:59:27.436Z,45
2017-09-14T13:00:36.269Z,45
2017-09-14T13:01:45.110Z,40
2017-09-14T13:02:54.270Z,45
2017-09-14T13:04:03.110Z,60
2017-09-14T13:05:11.946Z,40
2017-09-14T13:06:20.782Z,40
2017-09-14T13:07:29.618Z,35
2017-09-14T13:08:38.457Z,40
2017-09-14T13:09:47.295Z,60
2017-09-14T13:10:56.125Z,75
2017-09-14T13:12:04.966Z,45
2017-09-14T13:13:13.810Z,40
2017-09-14T13:14:22.650Z,30
2017-09-14T13:15:31.495Z,35
2017-09-14T13:16:40.325Z,35
2017-09-14T13:17:49.162Z,30
2017-09-14T13:18:57.998Z,45
2017-09-14T13:20:06.836Z,35
2017-09-14T13:21:15.670Z,35
2017-09-14T13:22:24.834Z,35
2017-09-14T13:23:33.673Z,45
2017-09-14T13:24:42.828Z,40
2017-09-14T13:25:51.698Z,45
2017-09-14T13:27:00.534Z,40
2017-09-14T13:28:09.370Z,40
2017-09-14T13:29:18.207Z,40
2017-09-14T13:30:27.038Z,40
2017-09-14T13:31:35.876Z,40
2017-09-14T13:32:44.715Z,40
2017-09-14T13:33:53.557Z,40
2017-09-14T13:35:02.389Z,30
2017-09-14T13:36:11.226Z,35
2017-09-14T13:37:20.371Z,45
2017-09-14T13:38:29.544Z,45
2017-09-14T13:39:38.384Z,45
2017-09-14T13:40:47.218Z,45
2017-09-14T13:41:56.054Z,40
2017-09-14T13:43:04.889Z,50
2017-09-14T13:44:14.051Z,30
2017-09-14T13:45:22.890Z,25
2017-09-14T13:46:31.725Z,25
2017-09-14T13:47:40.888Z,35
2017-09-14T13:48:49.718Z,45
2017-09-14T13:49:58.557Z,35
2017-09-14T13:51:07.392Z,35
2017-09-14T13:52:16.233Z,45
2017-09-14T13:53:25.069Z,45
2017-09-14T13:54:33.896Z,60
2017-09-14T13:55:42.733Z,60
2017-09-14T13:56:51.569Z,30
2017-09-14T13:58:00.406Z,30
2017-09-14T13:59:09.241Z,25
2017-09-14T14:00:18.082Z,25
2017-09-14T14:01:26.915Z,25
2017-09-14T14:02:35.752Z,30
2017-09-14T14:03:44.588Z,25
2017-09-14T14:04:53.421Z,30
2017-09-14T14:06:02.256Z,25
2017-09-14T14:07:11.091Z,25
2017-09-14T14:08:19.929Z,25
2017-09-14T14:09:28.771Z,35
2017-09-14T14:10:37.602Z,25
2017-09-14T14:11:46.440Z,25
2017-09-14T14:12:55.272Z,25
2017-09-14T14:14:04.111Z,25
2017-09-14T14:15:12.941Z,30
2017-09-14T14:16:21.779Z,30
2017-09-14T14:17:30.614Z,30
2017-09-14T14:18:39.448Z,45
2017-09-14T14:19:48.281Z,45
2017-09-14T14:20:57.123Z,45
2017-09-14T14:22:05.955Z,45
2017-09-14T14:23:14.792Z,45
2017-09-14T14:24:23.651Z,235
2017-09-14T14:25:32.509Z,50
2017-09-14T14:26:41.365Z,45
2017-09-14T14:27:50.223Z,45
2017-09-14T14:28:59.073Z,40
2017-09-14T14:30:07.934Z,45
2017-09-14T14:31:16.794Z,40
2017-09-14T14:32:25.649Z,55
2017-09-14T14:33:34.504Z,50
2017-09-14T14:34:43.363Z,55
2017-09-14T14:35:52.212Z,40
2017-09-14T14:37:01.074Z,40
2017-09-14T14:38:09.943Z,35
2017-09-14T14:39:18.805Z,30
2017-09-14T14:40:27.665Z,40
2017-09-14T14:41:36.526Z,25
2017-09-14T14:42:45.382Z,15
2017-09-14T14:43:54.580Z,15
2017-09-14T14:45:03.446Z,10
2017-09-14T14:46:12.627Z,10
2017-09-14T14:47:21.485Z,15
2017-09-14T14:48:30.340Z,20
2017-09-14T14:49:39.205Z,15
2017-09-14T14:50:48.057Z,20
2017-09-14T14:51:56.911Z,20
2017-09-14T14:53:05.765Z,20
2017-09-14T14:54:14.615Z,20
2017-09-14T14:55:23.482Z,15
2017-09-14T14:56:32.345Z,10
2017-09-14T14:57:41.501Z,10
2017-09-14T14:58:50.619Z,10
2017-09-14T14:59:59.498Z,10
2017-09-14T15:01:08.391Z,10
2017-09-14T15:02:17.283Z,15
2017-09-14T15:03:26.188Z,20
2017-09-14T15:04:35.053Z,20
2017-09-14T15:05:43.890Z,15
2017-09-14T15:06:52.892Z,10
2017-09-14T15:08:02.084Z,10
2017-09-14T15:09:10.994Z,10
2017-09-14T15:10:19.856Z,5
2017-09-14T15:11:28.702Z,0
2017-09-14T15:12:37.873Z,0
2017-09-14T15:13:46.921Z,0
2017-09-14T15:14:55.757Z,0
2017-09-14T15:16:05.494Z,0
2017-09-14T15:17:14.471Z,0
2017-09-14T15:18:23.675Z,0
2017-09-14T15:19:32.514Z,0
2017-09-14T15:20:41.438Z,5
2017-09-14T15:21:50.271Z,5
2017-09-14T15:22:59.195Z,5
2017-09-14T15:24:08.209Z,5
2017-09-14T15:25:17.219Z,5
2017-09-14T15:26:26.368Z,5
2017-09-14T15:27:35.281Z,10
2017-09-14T15:28:44.160Z,10
2017-09-14T15:29:53.065Z,10
2017-09-14T15:31:02.021Z,15
2017-09-14T15:32:10.856Z,20
2017-09-14T15:33:19.691Z,25
2017-09-14T15:34:29.423Z,25
2017-09-14T15:35:41.009Z,30
2017-09-14T15:36:50.588Z,25
2017-09-14T15:37:59.961Z,25
2017-09-14T15:39:09.098Z,20
2017-09-14T15:40:18.384Z,25
2017-09-14T15:41:27.967Z,30
2017-09-14T15:42:37.491Z,30
2017-09-14T15:43:46.811Z,30
2017-09-14T15:44:55.911Z,30
2017-09-14T15:46:04.959Z,30
2017-09-14T15:47:14.222Z,30
2017-09-14T15:48:23.598Z,25
2017-09-14T15:49:32.678Z,25
2017-09-14T15:50:42.036Z,25
2017-09-14T15:51:51.509Z,20
2017-09-14T15:53:00.638Z,15
2017-09-14T15:54:10.305Z,15
2017-09-14T15:55:19.750Z,15
2017-09-14T15:56:28.873Z,15
2017-09-14T15:57:38.118Z,15
2017-09-14T15:58:47.612Z,10
2017-09-14T15:59:56.782Z,10
2017-09-14T16:01:06.294Z,10
2017-09-14T16:02:15.888Z,10
2017-09-14T16:03:24.765Z,10
2017-09-14T16:04:33.958Z,10
2017-09-14T16:05:43.081Z,10
2017-09-14T16:06:52.083Z,10
2017-09-14T16:08:01.301Z,10
2017-09-14T16:09:10.633Z,10
2017-09-14T16:10:19.767Z,10
2017-09-14T16:11:29.050Z,10
2017-09-14T16:12:38.262Z,10
2017-09-14T16:13:47.466Z,10
2017-09-14T16:14:56.726Z,10
2017-09-14T16:16:06.005Z,10
2017-09-14T16:17:15.299Z,10
2017-09-14T16:18:24.467Z,10
2017-09-14T16:19:33.821Z,10
2017-09-14T16:20:42.680Z,10
2017-09-14T16:21:51.750Z,10
2017-09-14T16:23:01.021Z,10
2017-09-14T16:24:10.443Z,10
2017-09-14T16:25:19.459Z,10
2017-09-14T16:26:28.495Z,10
2017-09-14T16:27:37.913Z,5
2017-09-14T16:28:47.236Z,5
2017-09-14T16:29:56.291Z,5
2017-09-14T16:31:05.339Z,5
2017-09-14T16:32:14.310Z,5
2017-09-14T16:33:23.681Z,5
2017-09-14T16:34:32.747Z,5
2017-09-14T16:35:41.934Z,5
2017-09-14T16:36:51.067Z,5